Terminal Aerodrome Forecast
Issued by NWS

Home | Current Version | Previous Version | Text Only | Print | Product List | Glossary On
Versions: 1 2 3 4 5 6 7 8 9 10 11 12 13 14 15 16 17 18 19 20
000
FTAK31 PANC 140313 AAA
TAFAAQ
TAF AMD
PAAQ 140313Z 1403/1424 35008G15KT P6SM SCT030 BKN045
      TEMPO 1403/1406 13015G22KT FEW030
     FM140600 35008KT P6SM SCT060 BKN100=

USA.gov is the U.S. government's official web portal to all federal, state and local government web resources and services.